sensor_id;sensor_type;location;lat;lon;timestamp;temperature;humidity
34572;DHT22;20808;48.974;8.452;2022-10-26T00:01:52;13.70;1.00
34572;DHT22;20808;48.974;8.452;2022-10-26T00:04:19;13.70;1.00
34572;DHT22;20808;48.974;8.452;2022-10-26T00:06:46;13.70;1.00
34572;DHT22;20808;48.974;8.452;2022-10-26T00:09:13;13.70;1.00
34572;DHT22;20808;48.974;8.452;2022-10-26T00:11:39;13.70;1.00
34572;DHT22;20808;48.974;8.452;2022-10-26T00:14:10;13.80;1.00
34572;DHT22;20808;48.974;8.452;2022-10-26T00:16:37;13.80;1.00
34572;DHT22;20808;48.974;8.452;2022-10-26T00:19:04;13.70;1.00
34572;DHT22;20808;48.974;8.452;2022-10-26T00:21:30;13.60;1.00
34572;DHT22;20808;48.974;8.452;2022-10-26T00:23:58;13.60;1.00
34572;DHT22;20808;48.974;8.452;2022-10-26T00:26:25;13.50;1.00
34572;DHT22;20808;48.974;8.452;2022-10-26T00:28:52;13.40;1.00
34572;DHT22;20808;48.974;8.452;2022-10-26T00:31:20;13.40;1.00
34572;DHT22;20808;48.974;8.452;2022-10-26T00:33:51;13.40;1.00
34572;DHT22;20808;48.974;8.452;2022-10-26T00:36:18;13.30;1.00
34572;DHT22;20808;48.974;8.452;2022-10-26T00:38:48;13.30;1.00
34572;DHT22;20808;48.974;8.452;2022-10-26T00:41:15;13.40;16.30
34572;DHT22;20808;48.974;8.452;2022-10-26T00:43:42;13.40;1.00
34572;DHT22;20808;48.974;8.452;2022-10-26T00:46:13;13.50;1.00
34572;DHT22;20808;48.974;8.452;2022-10-26T00:48:46;13.40;1.00
34572;DHT22;20808;48.974;8.452;2022-10-26T00:51:19;13.40;1.00
34572;DHT22;20808;48.974;8.452;2022-10-26T00:53:49;13.40;1.00
34572;DHT22;20808;48.974;8.452;2022-10-26T00:56:16;13.40;1.00
34572;DHT22;20808;48.974;8.452;2022-10-26T00:58:44;13.40;26.40
34572;DHT22;20808;48.974;8.452;2022-10-26T01:01:11;13.40;1.00
34572;DHT22;20808;48.974;8.452;2022-10-26T01:03:38;13.30;1.00
34572;DHT22;20808;48.974;8.452;2022-10-26T01:06:07;13.30;1.00
34572;DHT22;20808;48.974;8.452;2022-10-26T01:08:34;13.30;28.40
34572;DHT22;20808;48.974;8.452;2022-10-26T01:11:02;13.40;34.20
34572;DHT22;20808;48.974;8.452;2022-10-26T01:13:32;13.30;47.70
34572;DHT22;20808;48.974;8.452;2022-10-26T01:16:10;13.20;97.10
34572;DHT22;20808;48.974;8.452;2022-10-26T01:18:43;13.20;99.90
34572;DHT22;20808;48.974;8.452;2022-10-26T01:21:40;13.20;99.90
34572;DHT22;20808;48.974;8.452;2022-10-26T01:24:34;13.10;99.90
34572;DHT22;20808;48.974;8.452;2022-10-26T01:27:20;13.10;99.90
34572;DHT22;20808;48.974;8.452;2022-10-26T01:30:16;13.10;99.90
34572;DHT22;20808;48.974;8.452;2022-10-26T01:32:46;13.10;99.90
34572;DHT22;20808;48.974;8.452;2022-10-26T01:35:21;13.10;99.90
34572;DHT22;20808;48.974;8.452;2022-10-26T01:37:56;13.10;99.90
34572;DHT22;20808;48.974;8.452;2022-10-26T01:40:28;13.30;53.50
34572;DHT22;20808;48.974;8.452;2022-10-26T01:42:58;13.40;1.00
34572;DHT22;20808;48.974;8.452;2022-10-26T01:45:29;13.40;1.00
34572;DHT22;20808;48.974;8.452;2022-10-26T01:48:00;13.50;41.20
34572;DHT22;20808;48.974;8.452;2022-10-26T01:50:28;13.40;85.60
34572;DHT22;20808;48.974;8.452;2022-10-26T01:52:56;13.40;99.90
34572;DHT22;20808;48.974;8.452;2022-10-26T01:55:43;13.30;99.90
34572;DHT22;20808;48.974;8.452;2022-10-26T01:58:22;13.20;99.90
34572;DHT22;20808;48.974;8.452;2022-10-26T02:00:58;13.30;99.90
34572;DHT22;20808;48.974;8.452;2022-10-26T02:03:32;13.30;99.90
34572;DHT22;20808;48.974;8.452;2022-10-26T02:06:11;13.20;99.90
34572;DHT22;20808;48.974;8.452;2022-10-26T02:08:56;13.10;99.90
34572;DHT22;20808;48.974;8.452;2022-10-26T02:11:35;13.10;99.90
34572;DHT22;20808;48.974;8.452;2022-10-26T02:14:10;13.10;99.90
34572;DHT22;20808;48.974;8.452;2022-10-26T02:16:44;13.00;99.90
34572;DHT22;20808;48.974;8.452;2022-10-26T02:19:23;13.00;99.90
34572;DHT22;20808;48.974;8.452;2022-10-26T02:21:55;13.10;99.90
34572;DHT22;20808;48.974;8.452;2022-10-26T02:24:23;13.00;99.90
34572;DHT22;20808;48.974;8.452;2022-10-26T02:26:53;12.90;99.90
34572;DHT22;20808;48.974;8.452;2022-10-26T02:29:22;12.80;99.90
34572;DHT22;20808;48.974;8.452;2022-10-26T02:31:51;12.80;99.90
34572;DHT22;20808;48.974;8.452;2022-10-26T02:34:22;12.70;99.90
34572;DHT22;20808;48.974;8.452;2022-10-26T02:36:52;12.70;99.90
34572;DHT22;20808;48.974;8.452;2022-10-26T02:39:21;12.60;99.90
34572;DHT22;20808;48.974;8.452;2022-10-26T02:41:49;12.60;99.90
34572;DHT22;20808;48.974;8.452;2022-10-26T02:44:20;12.50;99.90
34572;DHT22;20808;48.974;8.452;2022-10-26T02:46:50;12.50;99.90
34572;DHT22;20808;48.974;8.452;2022-10-26T02:49:18;12.40;99.90
34572;DHT22;20808;48.974;8.452;2022-10-26T02:51:49;12.50;99.90
34572;DHT22;20808;48.974;8.452;2022-10-26T02:54:23;12.50;99.90
34572;DHT22;20808;48.974;8.452;2022-10-26T02:56:54;12.60;99.90
34572;DHT22;20808;48.974;8.452;2022-10-26T02:59:25;12.70;99.90
34572;DHT22;20808;48.974;8.452;2022-10-26T03:01:54;12.60;99.90
34572;DHT22;20808;48.974;8.452;2022-10-26T03:04:27;12.60;99.90
34572;DHT22;20808;48.974;8.452;2022-10-26T03:06:54;12.50;99.90
34572;DHT22;20808;48.974;8.452;2022-10-26T03:09:21;12.50;99.90
34572;DHT22;20808;48.974;8.452;2022-10-26T03:11:48;12.40;99.90
34572;DHT22;20808;48.974;8.452;2022-10-26T03:14:15;12.40;99.90
34572;DHT22;20808;48.974;8.452;2022-10-26T03:16:42;12.40;99.90
34572;DHT22;20808;48.974;8.452;2022-10-26T03:19:10;12.30;99.90
34572;DHT22;20808;48.974;8.452;2022-10-26T03:21:37;12.30;99.90
34572;DHT22;20808;48.974;8.452;2022-10-26T03:24:04;12.30;99.90
34572;DHT22;20808;48.974;8.452;2022-10-26T03:26:31;12.40;99.90
34572;DHT22;20808;48.974;8.452;2022-10-26T03:28:58;12.40;99.90
34572;DHT22;20808;48.974;8.452;2022-10-26T03:31:25;12.40;99.90
34572;DHT22;20808;48.974;8.452;2022-10-26T03:33:52;12.30;99.90
34572;DHT22;20808;48.974;8.452;2022-10-26T03:36:20;12.30;99.90
34572;DHT22;20808;48.974;8.452;2022-10-26T03:38:47;12.30;99.90
34572;DHT22;20808;48.974;8.452;2022-10-26T03:41:13;12.20;99.90
34572;DHT22;20808;48.974;8.452;2022-10-26T03:43:40;12.20;99.90
34572;DHT22;20808;48.974;8.452;2022-10-26T03:46:07;12.10;99.90
34572;DHT22;20808;48.974;8.452;2022-10-26T03:48:33;12.10;99.90
34572;DHT22;20808;48.974;8.452;2022-10-26T03:51:00;12.10;99.90
34572;DHT22;20808;48.974;8.452;2022-10-26T03:53:28;12.10;99.90
34572;DHT22;20808;48.974;8.452;2022-10-26T03:55:55;12.10;99.90
34572;DHT22;20808;48.974;8.452;2022-10-26T03:58:22;12.10;99.90
34572;DHT22;20808;48.974;8.452;2022-10-26T04:00:49;12.10;99.90
34572;DHT22;20808;48.974;8.452;2022-10-26T04:03:16;12.10;99.90
34572;DHT22;20808;48.974;8.452;2022-10-26T04:05:43;12.10;99.90
34572;DHT22;20808;48.974;8.452;2022-10-26T04:08:10;12.10;99.90
34572;DHT22;20808;48.974;8.452;2022-10-26T04:10:38;12.10;99.90
34572;DHT22;20808;48.974;8.452;2022-10-26T04:13:04;12.20;99.90
34572;DHT22;20808;48.974;8.452;2022-10-26T04:15:31;12.30;99.90
34572;DHT22;20808;48.974;8.452;2022-10-26T04:17:59;12.40;99.90
34572;DHT22;20808;48.974;8.452;2022-10-26T04:20:28;12.40;99.90
34572;DHT22;20808;48.974;8.452;2022-10-26T04:22:59;12.50;99.90
34572;DHT22;20808;48.974;8.452;2022-10-26T04:25:26;12.70;99.90
34572;DHT22;20808;48.974;8.452;2022-10-26T04:27:54;12.70;99.90
34572;DHT22;20808;48.974;8.452;2022-10-26T04:30:21;12.90;99.90
34572;DHT22;20808;48.974;8.452;2022-10-26T04:32:48;13.00;99.90
34572;DHT22;20808;48.974;8.452;2022-10-26T04:35:15;13.00;99.90
34572;DHT22;20808;48.974;8.452;2022-10-26T04:37:42;13.10;99.90
34572;DHT22;20808;48.974;8.452;2022-10-26T04:40:10;13.10;99.90
34572;DHT22;20808;48.974;8.452;2022-10-26T04:42:41;13.10;99.90
34572;DHT22;20808;48.974;8.452;2022-10-26T04:45:10;13.10;99.90
34572;DHT22;20808;48.974;8.452;2022-10-26T04:47:37;13.10;99.90
34572;DHT22;20808;48.974;8.452;2022-10-26T04:50:05;13.10;99.90
34572;DHT22;20808;48.974;8.452;2022-10-26T04:52:32;13.00;99.90
34572;DHT22;20808;48.974;8.452;2022-10-26T04:54:59;13.10;99.90
34572;DHT22;20808;48.974;8.452;2022-10-26T04:57:26;13.10;99.90
34572;DHT22;20808;48.974;8.452;2022-10-26T04:59:53;13.20;99.90
34572;DHT22;20808;48.974;8.452;2022-10-26T05:02:21;13.20;99.90
34572;DHT22;20808;48.974;8.452;2022-10-26T05:04:48;13.30;99.90
34572;DHT22;20808;48.974;8.452;2022-10-26T05:07:15;13.40;99.90
34572;DHT22;20808;48.974;8.452;2022-10-26T05:09:42;13.40;99.90
34572;DHT22;20808;48.974;8.452;2022-10-26T05:12:08;13.30;99.90
34572;DHT22;20808;48.974;8.452;2022-10-26T05:14:35;13.20;99.90
34572;DHT22;20808;48.974;8.452;2022-10-26T05:17:02;13.10;99.90
34572;DHT22;20808;48.974;8.452;2022-10-26T05:19:30;13.00;99.90
34572;DHT22;20808;48.974;8.452;2022-10-26T05:21:57;13.00;99.90
34572;DHT22;20808;48.974;8.452;2022-10-26T05:24:23;12.90;99.90
34572;DHT22;20808;48.974;8.452;2022-10-26T05:26:50;12.80;99.90
34572;DHT22;20808;48.974;8.452;2022-10-26T05:29:17;12.80;99.90
34572;DHT22;20808;48.974;8.452;2022-10-26T05:31:44;12.90;99.90
34572;DHT22;20808;48.974;8.452;2022-10-26T05:34:11;12.80;99.90
34572;DHT22;20808;48.974;8.452;2022-10-26T05:36:39;12.80;99.90
34572;DHT22;20808;48.974;8.452;2022-10-26T05:39:06;12.80;99.90
34572;DHT22;20808;48.974;8.452;2022-10-26T05:41:35;12.80;99.90
34572;DHT22;20808;48.974;8.452;2022-10-26T05:44:01;12.80;99.90
34572;DHT22;20808;48.974;8.452;2022-10-26T05:46:28;12.70;99.90
34572;DHT22;20808;48.974;8.452;2022-10-26T05:48:55;12.70;99.90
34572;DHT22;20808;48.974;8.452;2022-10-26T05:51:22;12.70;99.90
34572;DHT22;20808;48.974;8.452;2022-10-26T05:53:51;12.80;99.90
34572;DHT22;20808;48.974;8.452;2022-10-26T05:56:31;12.90;99.90
34572;DHT22;20808;48.974;8.452;2022-10-26T05:58:59;12.90;99.90
34572;DHT22;20808;48.974;8.452;2022-10-26T06:01:31;12.90;99.90
34572;DHT22;20808;48.974;8.452;2022-10-26T06:04:11;13.00;99.90
34572;DHT22;20808;48.974;8.452;2022-10-26T06:06:44;13.00;99.90
34572;DHT22;20808;48.974;8.452;2022-10-26T06:09:13;12.90;99.90
34572;DHT22;20808;48.974;8.452;2022-10-26T06:11:41;12.90;99.90
34572;DHT22;20808;48.974;8.452;2022-10-26T06:14:08;12.80;99.90
34572;DHT22;20808;48.974;8.452;2022-10-26T06:16:46;12.80;99.90
34572;DHT22;20808;48.974;8.452;2022-10-26T06:19:23;12.90;99.90
34572;DHT22;20808;48.974;8.452;2022-10-26T06:22:03;12.80;99.90
34572;DHT22;20808;48.974;8.452;2022-10-26T06:24:42;12.90;99.90
34572;DHT22;20808;48.974;8.452;2022-10-26T06:27:16;12.80;99.90
34572;DHT22;20808;48.974;8.452;2022-10-26T06:29:53;12.80;99.90
34572;DHT22;20808;48.974;8.452;2022-10-26T06:32:22;12.80;99.90
34572;DHT22;20808;48.974;8.452;2022-10-26T06:34:51;12.80;99.90
34572;DHT22;20808;48.974;8.452;2022-10-26T06:37:21;12.80;99.90
34572;DHT22;20808;48.974;8.452;2022-10-26T06:39:51;13.00;99.90
34572;DHT22;20808;48.974;8.452;2022-10-26T06:42:18;13.00;99.90
34572;DHT22;20808;48.974;8.452;2022-10-26T06:44:46;13.10;99.90
34572;DHT22;20808;48.974;8.452;2022-10-26T06:47:18;13.00;99.90
34572;DHT22;20808;48.974;8.452;2022-10-26T06:49:56;13.00;99.90
34572;DHT22;20808;48.974;8.452;2022-10-26T06:52:31;13.10;99.90
34572;DHT22;20808;48.974;8.452;2022-10-26T06:55:01;13.20;99.90
34572;DHT22;20808;48.974;8.452;2022-10-26T06:57:34;13.20;99.90
34572;DHT22;20808;48.974;8.452;2022-10-26T07:00:06;13.30;99.90
34572;DHT22;20808;48.974;8.452;2022-10-26T07:02:33;13.30;99.90
34572;DHT22;20808;48.974;8.452;2022-10-26T07:05:00;13.40;99.90
34572;DHT22;20808;48.974;8.452;2022-10-26T07:07:29;13.40;99.90
34572;DHT22;20808;48.974;8.452;2022-10-26T07:09:56;13.50;99.90
34572;DHT22;20808;48.974;8.452;2022-10-26T07:12:24;13.50;99.90
34572;DHT22;20808;48.974;8.452;2022-10-26T07:14:51;13.50;99.90
34572;DHT22;20808;48.974;8.452;2022-10-26T07:17:18;13.60;99.90
34572;DHT22;20808;48.974;8.452;2022-10-26T07:19:45;13.60;99.90
34572;DHT22;20808;48.974;8.452;2022-10-26T07:22:11;13.70;99.90
34572;DHT22;20808;48.974;8.452;2022-10-26T07:24:38;13.80;99.90
34572;DHT22;20808;48.974;8.452;2022-10-26T07:27:05;13.90;99.90
34572;DHT22;20808;48.974;8.452;2022-10-26T07:29:33;14.00;99.90
34572;DHT22;20808;48.974;8.452;2022-10-26T07:32:00;14.10;99.90
34572;DHT22;20808;48.974;8.452;2022-10-26T07:34:27;14.30;99.90
34572;DHT22;20808;48.974;8.452;2022-10-26T07:36:54;14.30;99.90
34572;DHT22;20808;48.974;8.452;2022-10-26T07:39:21;14.30;99.90
34572;DHT22;20808;48.974;8.452;2022-10-26T07:41:48;14.40;99.90
34572;DHT22;20808;48.974;8.452;2022-10-26T07:44:14;14.40;99.90
34572;DHT22;20808;48.974;8.452;2022-10-26T07:46:42;14.50;99.90
34572;DHT22;20808;48.974;8.452;2022-10-26T07:49:09;14.60;99.90
34572;DHT22;20808;48.974;8.452;2022-10-26T07:51:36;14.70;99.90
34572;DHT22;20808;48.974;8.452;2022-10-26T07:54:03;14.90;99.90
34572;DHT22;20808;48.974;8.452;2022-10-26T07:56:30;15.00;99.90
34572;DHT22;20808;48.974;8.452;2022-10-26T07:58:56;15.10;99.90
34572;DHT22;20808;48.974;8.452;2022-10-26T08:01:23;15.20;99.90
34572;DHT22;20808;48.974;8.452;2022-10-26T08:03:52;15.30;99.90
34572;DHT22;20808;48.974;8.452;2022-10-26T08:06:20;15.50;52.00
34572;DHT22;20808;48.974;8.452;2022-10-26T08:08:47;15.70;1.00
34572;DHT22;20808;48.974;8.452;2022-10-26T08:11:14;15.80;1.00
34572;DHT22;20808;48.974;8.452;2022-10-26T08:13:41;15.90;1.00
34572;DHT22;20808;48.974;8.452;2022-10-26T08:16:08;16.20;1.00
34572;DHT22;20808;48.974;8.452;2022-10-26T08:18:35;16.20;1.00
34572;DHT22;20808;48.974;8.452;2022-10-26T08:21:06;16.30;1.00
34572;DHT22;20808;48.974;8.452;2022-10-26T08:23:33;16.40;1.00
34572;DHT22;20808;48.974;8.452;2022-10-26T08:26:00;16.50;1.00
34572;DHT22;20808;48.974;8.452;2022-10-26T08:28:27;16.50;1.00
34572;DHT22;20808;48.974;8.452;2022-10-26T08:30:54;16.70;1.00
34572;DHT22;20808;48.974;8.452;2022-10-26T08:33:22;16.90;1.00
34572;DHT22;20808;48.974;8.452;2022-10-26T08:35:54;17.00;99.90
34572;DHT22;20808;48.974;8.452;2022-10-26T08:38:22;17.20;1.00
34572;DHT22;20808;48.974;8.452;2022-10-26T08:40:50;17.20;99.90
34572;DHT22;20808;48.974;8.452;2022-10-26T08:43:22;17.20;1.00
34572;DHT22;20808;48.974;8.452;2022-10-26T08:45:56;17.20;21.80
34572;DHT22;20808;48.974;8.452;2022-10-26T08:48:27;17.30;1.00
34572;DHT22;20808;48.974;8.452;2022-10-26T08:50:59;17.40;1.00
34572;DHT22;20808;48.974;8.452;2022-10-26T08:53:34;17.40;1.00
34572;DHT22;20808;48.974;8.452;2022-10-26T08:56:08;17.70;1.00
34572;DHT22;20808;48.974;8.452;2022-10-26T08:58:38;17.90;1.00
34572;DHT22;20808;48.974;8.452;2022-10-26T09:01:07;17.70;1.00
34572;DHT22;20808;48.974;8.452;2022-10-26T09:03:34;17.80;1.00
34572;DHT22;20808;48.974;8.452;2022-10-26T09:06:17;17.90;1.00
34572;DHT22;20808;48.974;8.452;2022-10-26T09:08:56;18.10;99.90
34572;DHT22;20808;48.974;8.452;2022-10-26T09:11:35;18.60;99.90
34572;DHT22;20808;48.974;8.452;2022-10-26T09:14:14;18.90;99.90
34572;DHT22;20808;48.974;8.452;2022-10-26T09:16:50;19.50;1.00
34572;DHT22;20808;48.974;8.452;2022-10-26T09:22:16;20.50;1.00
34572;DHT22;20808;48.974;8.452;2022-10-26T09:24:51;21.10;99.90
34572;DHT22;20808;48.974;8.452;2022-10-26T09:27:22;21.30;99.90
34572;DHT22;20808;48.974;8.452;2022-10-26T09:29:50;21.40;99.90
34572;DHT22;20808;48.974;8.452;2022-10-26T09:32:19;21.80;99.90
34572;DHT22;20808;48.974;8.452;2022-10-26T09:34:49;22.10;99.90
34572;DHT22;20808;48.974;8.452;2022-10-26T09:37:19;22.40;99.90
34572;DHT22;20808;48.974;8.452;2022-10-26T09:39:56;22.70;99.90
34572;DHT22;20808;48.974;8.452;2022-10-26T09:42:27;23.00;99.90
34572;DHT22;20808;48.974;8.452;2022-10-26T09:45:00;22.30;99.90
34572;DHT22;20808;48.974;8.452;2022-10-26T09:47:33;21.70;99.90
34572;DHT22;20808;48.974;8.452;2022-10-26T09:50:11;21.50;99.90
34572;DHT22;20808;48.974;8.452;2022-10-26T09:52:39;21.70;99.90
34572;DHT22;20808;48.974;8.452;2022-10-26T09:55:10;22.00;99.90
34572;DHT22;20808;48.974;8.452;2022-10-26T09:57:40;21.70;99.90
34572;DHT22;20808;48.974;8.452;2022-10-26T10:00:13;21.60;99.90
34572;DHT22;20808;48.974;8.452;2022-10-26T10:02:41;22.10;99.90
34572;DHT22;20808;48.974;8.452;2022-10-26T10:05:30;22.50;99.90
34572;DHT22;20808;48.974;8.452;2022-10-26T10:08:16;23.20;99.90
34572;DHT22;20808;48.974;8.452;2022-10-26T10:10:55;23.70;99.90
34572;DHT22;20808;48.974;8.452;2022-10-26T10:13:24;23.20;99.90
34572;DHT22;20808;48.974;8.452;2022-10-26T10:15:53;22.90;99.90
34572;DHT22;20808;48.974;8.452;2022-10-26T10:18:21;23.00;99.90
34572;DHT22;20808;48.974;8.452;2022-10-26T10:20:51;22.80;99.90
34572;DHT22;20808;48.974;8.452;2022-10-26T10:23:26;22.30;99.90
34572;DHT22;20808;48.974;8.452;2022-10-26T10:26:06;22.50;99.90
34572;DHT22;20808;48.974;8.452;2022-10-26T10:28:33;23.40;99.90
34572;DHT22;20808;48.974;8.452;2022-10-26T10:31:02;23.70;99.90
34572;DHT22;20808;48.974;8.452;2022-10-26T10:33:35;23.20;99.90
34572;DHT22;20808;48.974;8.452;2022-10-26T10:36:05;22.70;99.90
34572;DHT22;20808;48.974;8.452;2022-10-26T10:38:36;22.40;99.90
34572;DHT22;20808;48.974;8.452;2022-10-26T10:41:14;22.70;99.90
34572;DHT22;20808;48.974;8.452;2022-10-26T10:43:44;22.80;99.90
34572;DHT22;20808;48.974;8.452;2022-10-26T10:46:17;22.80;99.90
34572;DHT22;20808;48.974;8.452;2022-10-26T10:48:46;22.90;99.90
34572;DHT22;20808;48.974;8.452;2022-10-26T10:51:18;23.20;99.90
34572;DHT22;20808;48.974;8.452;2022-10-26T10:53:47;23.10;99.90
34572;DHT22;20808;48.974;8.452;2022-10-26T10:56:37;23.10;99.90
34572;DHT22;20808;48.974;8.452;2022-10-26T10:59:27;23.40;99.90
34572;DHT22;20808;48.974;8.452;2022-10-26T11:02:16;24.10;99.90
34572;DHT22;20808;48.974;8.452;2022-10-26T11:05:03;24.60;99.90
34572;DHT22;20808;48.974;8.452;2022-10-26T11:07:40;24.70;99.90
34572;DHT22;20808;48.974;8.452;2022-10-26T11:10:13;25.10;99.80
34572;DHT22;20808;48.974;8.452;2022-10-26T11:12:45;25.50;93.00
34572;DHT22;20808;48.974;8.452;2022-10-26T11:15:15;25.50;78.70
34572;DHT22;20808;48.974;8.452;2022-10-26T11:17:51;25.10;74.60
34572;DHT22;20808;48.974;8.452;2022-10-26T11:20:21;25.00;63.20
34572;DHT22;20808;48.974;8.452;2022-10-26T11:23:01;24.70;57.20
34572;DHT22;20808;48.974;8.452;2022-10-26T11:25:34;24.20;55.90
34572;DHT22;20808;48.974;8.452;2022-10-26T11:28:09;23.70;59.00
34572;DHT22;20808;48.974;8.452;2022-10-26T11:30:43;23.70;65.40
34572;DHT22;20808;48.974;8.452;2022-10-26T11:33:15;23.10;60.00
34572;DHT22;20808;48.974;8.452;2022-10-26T11:35:46;23.20;68.80
34572;DHT22;20808;48.974;8.452;2022-10-26T11:38:18;23.30;63.10
34572;DHT22;20808;48.974;8.452;2022-10-26T11:40:51;23.00;64.70
34572;DHT22;20808;48.974;8.452;2022-10-26T11:43:26;23.50;64.20
34572;DHT22;20808;48.974;8.452;2022-10-26T11:46:04;23.60;46.40
34572;DHT22;20808;48.974;8.452;2022-10-26T11:48:36;24.10;54.00
34572;DHT22;20808;48.974;8.452;2022-10-26T11:51:09;25.10;45.20
34572;DHT22;20808;48.974;8.452;2022-10-26T11:53:43;25.40;37.00
34572;DHT22;20808;48.974;8.452;2022-10-26T11:56:13;25.90;30.00
34572;DHT22;20808;48.974;8.452;2022-10-26T11:58:43;26.10;26.10
34572;DHT22;20808;48.974;8.452;2022-10-26T12:01:13;26.00;19.20
34572;DHT22;20808;48.974;8.452;2022-10-26T12:03:43;26.20;13.50
34572;DHT22;20808;48.974;8.452;2022-10-26T12:06:13;26.70;13.50
34572;DHT22;20808;48.974;8.452;2022-10-26T12:08:44;27.70;6.20
34572;DHT22;20808;48.974;8.452;2022-10-26T12:11:20;28.00;1.00
34572;DHT22;20808;48.974;8.452;2022-10-26T12:13:58;28.10;1.00
34572;DHT22;20808;48.974;8.452;2022-10-26T12:16:40;28.00;1.00
34572;DHT22;20808;48.974;8.452;2022-10-26T12:19:13;27.70;1.00
34572;DHT22;20808;48.974;8.452;2022-10-26T12:21:42;28.10;1.00
34572;DHT22;20808;48.974;8.452;2022-10-26T12:24:28;28.40;1.00
34572;DHT22;20808;48.974;8.452;2022-10-26T12:27:00;28.20;1.00
34572;DHT22;20808;48.974;8.452;2022-10-26T12:29:31;26.60;1.00
34572;DHT22;20808;48.974;8.452;2022-10-26T12:32:01;25.80;1.00
34572;DHT22;20808;48.974;8.452;2022-10-26T12:34:56;25.60;1.00
34572;DHT22;20808;48.974;8.452;2022-10-26T12:37:31;25.90;1.00
34572;DHT22;20808;48.974;8.452;2022-10-26T12:43:33;28.20;1.00
34572;DHT22;20808;48.974;8.452;2022-10-26T12:52:26;28.00;1.00
34572;DHT22;20808;48.974;8.452;2022-10-26T12:58:45;27.80;1.00
34572;DHT22;20808;48.974;8.452;2022-10-26T13:07:17;28.20;1.00
34572;DHT22;20808;48.974;8.452;2022-10-26T13:09:55;27.90;1.00
34572;DHT22;20808;48.974;8.452;2022-10-26T13:12:23;27.90;1.00
34572;DHT22;20808;48.974;8.452;2022-10-26T13:14:56;28.50;1.00
34572;DHT22;20808;48.974;8.452;2022-10-26T13:17:25;28.10;1.00
34572;DHT22;20808;48.974;8.452;2022-10-26T13:19:55;27.40;1.00
34572;DHT22;20808;48.974;8.452;2022-10-26T13:22:23;27.30;1.00
34572;DHT22;20808;48.974;8.452;2022-10-26T13:24:53;26.90;1.00
34572;DHT22;20808;48.974;8.452;2022-10-26T13:27:43;27.60;1.00
34572;DHT22;20808;48.974;8.452;2022-10-26T13:30:20;27.70;1.00
34572;DHT22;20808;48.974;8.452;2022-10-26T13:32:52;27.40;1.00
34572;DHT22;20808;48.974;8.452;2022-10-26T13:35:21;27.50;1.00
34572;DHT22;20808;48.974;8.452;2022-10-26T13:37:51;26.80;1.00
34572;DHT22;20808;48.974;8.452;2022-10-26T13:40:23;26.40;1.00
34572;DHT22;20808;48.974;8.452;2022-10-26T13:42:53;26.00;1.00
34572;DHT22;20808;48.974;8.452;2022-10-26T13:45:24;26.00;1.00
34572;DHT22;20808;48.974;8.452;2022-10-26T13:47:55;26.10;1.00
34572;DHT22;20808;48.974;8.452;2022-10-26T13:50:27;26.70;1.00
34572;DHT22;20808;48.974;8.452;2022-10-26T13:52:59;27.20;1.00
34572;DHT22;20808;48.974;8.452;2022-10-26T13:55:32;27.20;1.00
34572;DHT22;20808;48.974;8.452;2022-10-26T13:58:16;27.20;1.00
34572;DHT22;20808;48.974;8.452;2022-10-26T14:01:00;27.20;1.00
34572;DHT22;20808;48.974;8.452;2022-10-26T14:03:27;27.00;1.00
34572;DHT22;20808;48.974;8.452;2022-10-26T14:05:53;26.50;1.00
34572;DHT22;20808;48.974;8.452;2022-10-26T14:08:21;26.80;1.00
34572;DHT22;20808;48.974;8.452;2022-10-26T14:10:54;27.20;1.00
34572;DHT22;20808;48.974;8.452;2022-10-26T14:13:24;27.10;1.00
34572;DHT22;20808;48.974;8.452;2022-10-26T14:15:52;26.70;1.00
34572;DHT22;20808;48.974;8.452;2022-10-26T14:18:22;25.90;1.00
34572;DHT22;20808;48.974;8.452;2022-10-26T14:20:55;25.10;1.00
34572;DHT22;20808;48.974;8.452;2022-10-26T14:23:32;24.50;1.00
34572;DHT22;20808;48.974;8.452;2022-10-26T14:26:01;24.40;1.00
34572;DHT22;20808;48.974;8.452;2022-10-26T14:28:30;24.40;1.00
34572;DHT22;20808;48.974;8.452;2022-10-26T14:31:19;24.40;1.00
34572;DHT22;20808;48.974;8.452;2022-10-26T14:33:46;24.40;1.00
34572;DHT22;20808;48.974;8.452;2022-10-26T14:36:14;24.00;1.00
34572;DHT22;20808;48.974;8.452;2022-10-26T14:38:43;23.90;1.00
34572;DHT22;20808;48.974;8.452;2022-10-26T14:41:15;23.60;1.00
34572;DHT22;20808;48.974;8.452;2022-10-26T14:43:43;23.40;1.00
34572;DHT22;20808;48.974;8.452;2022-10-26T14:46:13;23.30;1.00
34572;DHT22;20808;48.974;8.452;2022-10-26T14:48:50;23.20;1.00
34572;DHT22;20808;48.974;8.452;2022-10-26T14:51:18;23.00;1.00
34572;DHT22;20808;48.974;8.452;2022-10-26T14:53:48;22.90;1.00
34572;DHT22;20808;48.974;8.452;2022-10-26T14:56:29;22.80;1.00
34572;DHT22;20808;48.974;8.452;2022-10-26T14:58:57;22.60;1.00
34572;DHT22;20808;48.974;8.452;2022-10-26T15:01:31;22.50;1.00
34572;DHT22;20808;48.974;8.452;2022-10-26T15:04:01;22.30;1.00
34572;DHT22;20808;48.974;8.452;2022-10-26T15:06:34;22.20;1.00
34572;DHT22;20808;48.974;8.452;2022-10-26T15:09:03;22.10;25.60
34572;DHT22;20808;48.974;8.452;2022-10-26T15:11:33;21.90;66.10
34572;DHT22;20808;48.974;8.452;2022-10-26T15:14:01;21.70;99.90
34572;DHT22;20808;48.974;8.452;2022-10-26T15:16:30;21.50;99.90
34572;DHT22;20808;48.974;8.452;2022-10-26T15:19:05;21.30;99.90
34572;DHT22;20808;48.974;8.452;2022-10-26T15:21:34;21.20;99.90
34572;DHT22;20808;48.974;8.452;2022-10-26T15:24:28;21.00;99.90
34572;DHT22;20808;48.974;8.452;2022-10-26T15:26:56;20.80;99.90
34572;DHT22;20808;48.974;8.452;2022-10-26T15:29:34;20.60;99.90
34572;DHT22;20808;48.974;8.452;2022-10-26T15:32:02;20.50;1.00
34572;DHT22;20808;48.974;8.452;2022-10-26T15:34:29;20.30;1.00
34572;DHT22;20808;48.974;8.452;2022-10-26T15:36:56;20.10;1.00
34572;DHT22;20808;48.974;8.452;2022-10-26T15:39:24;19.90;1.00
34572;DHT22;20808;48.974;8.452;2022-10-26T15:41:51;19.80;1.00
34572;DHT22;20808;48.974;8.452;2022-10-26T15:44:21;19.70;76.00
34572;DHT22;20808;48.974;8.452;2022-10-26T15:46:48;19.50;99.90
34572;DHT22;20808;48.974;8.452;2022-10-26T15:49:17;19.30;1.00
34572;DHT22;20808;48.974;8.452;2022-10-26T15:51:45;19.10;1.00
34572;DHT22;20808;48.974;8.452;2022-10-26T15:54:13;18.90;99.90
34572;DHT22;20808;48.974;8.452;2022-10-26T15:56:40;18.80;1.00
34572;DHT22;20808;48.974;8.452;2022-10-26T15:59:13;18.60;99.90
34572;DHT22;20808;48.974;8.452;2022-10-26T16:01:42;18.50;1.00
34572;DHT22;20808;48.974;8.452;2022-10-26T16:04:09;18.40;1.00
34572;DHT22;20808;48.974;8.452;2022-10-26T16:06:37;18.30;1.00
34572;DHT22;20808;48.974;8.452;2022-10-26T16:09:08;18.20;99.90
34572;DHT22;20808;48.974;8.452;2022-10-26T16:11:35;18.10;1.00
34572;DHT22;20808;48.974;8.452;2022-10-26T16:14:02;18.00;1.00
34572;DHT22;20808;48.974;8.452;2022-10-26T16:16:29;17.90;1.00
34572;DHT22;20808;48.974;8.452;2022-10-26T16:18:57;17.80;99.90
34572;DHT22;20808;48.974;8.452;2022-10-26T16:21:24;17.80;99.90